Time;durP1;ratioP1;P1;durP2;ratioP2;P2;SDS_P1;SDS_P2;PMS_P1;PMS_P2;Temp;Humidity;BMP_temperature;BMP_pressure;BME280_temperature;BME280_humidity;BME280_pressure;Samples;Min_cycle;Max_cycle;Signal;HPM_P1;HPM_P2
2023/07/08 00:02:20;;;;;;;8.50;3.78;;;;;;;;;;4935592;28;20054;-61
2023/07/08 00:04:49;;;;;;;7.40;3.58;;;;;;;;;;4945760;28;20039;-61
2023/07/08 00:07:20;;;;;;;7.22;3.70;;;;;;;;;;4939921;28;20036;-62
2023/07/08 00:09:46;;;;;;;9.70;4.10;;;;;;;;;;4935616;28;20062;-62
2023/07/08 00:12:12;;;;;;;8.10;3.45;;;;;;;;;;4944867;28;20122;-62
2023/07/08 00:14:38;;;;;;;8.40;3.92;;;;;;;;;;4949040;28;20102;-62
2023/07/08 00:17:11;;;;;;;7.35;3.58;;;;;;;;;;4945316;28;20495;-61
2023/07/08 00:19:43;;;;;;;7.05;3.33;;;;;;;;;;4972420;28;20122;-62
2023/07/08 00:22:15;;;;;;;8.65;4.70;;;;;;;;;;4957403;28;20039;-64
2023/07/08 00:24:44;;;;;;;7.38;4.22;;;;;;;;;;4970565;28;20518;-62
2023/07/08 00:27:13;;;;;;;7.93;3.72;;;;;;;;;;4942061;28;20048;-62
2023/07/08 00:29:39;;;;;;;7.97;4.20;;;;;;;;;;4951635;28;20052;-62
2023/07/08 00:32:12;;;;;;;8.45;4.00;;;;;;;;;;4942056;28;20040;-61
2023/07/08 00:34:41;;;;;;;9.93;3.97;;;;;;;;;;4940240;28;20047;-62
2023/07/08 00:37:16;;;;;;;6.90;3.53;;;;;;;;;;4945179;28;20068;-62
2023/07/08 00:39:42;;;;;;;7.65;4.00;;;;;;;;;;4947816;28;20036;-62
2023/07/08 00:42:16;;;;;;;9.82;4.00;;;;;;;;;;4940265;28;20043;-62
2023/07/08 00:44:42;;;;;;;6.55;3.40;;;;;;;;;;4949586;28;20043;-62
2023/07/08 00:47:10;;;;;;;7.80;3.45;;;;;;;;;;4947634;28;20046;-62
2023/07/08 00:49:44;;;;;;;6.35;3.50;;;;;;;;;;4944592;28;20051;-61
2023/07/08 00:52:21;;;;;;;7.68;3.83;;;;;;;;;;4948446;28;20094;-62
2023/07/08 00:54:56;;;;;;;7.07;3.40;;;;;;;;;;4957940;28;20114;-62
2023/07/08 00:57:24;;;;;;;8.85;3.95;;;;;;;;;;4952268;28;20490;-61
2023/07/08 00:59:56;;;;;;;9.07;4.03;;;;;;;;;;4958769;28;20039;-62
2023/07/08 01:02:25;;;;;;;7.05;3.90;;;;;;;;;;4956701;28;20121;-62
2023/07/08 01:05:03;;;;;;;9.60;4.47;;;;;;;;;;4954772;28;20561;-62
2023/07/08 01:07:29;;;;;;;6.82;3.80;;;;;;;;;;4944406;28;20126;-62
2023/07/08 01:10:03;;;;;;;7.85;4.00;;;;;;;;;;4957562;28;20050;-62
2023/07/08 01:12:29;;;;;;;;;;;;;;;;;;4936704;28;20576;-62
2023/07/08 01:14:56;;;;;;;6.50;3.60;;;;;;;;;;4946038;28;19969;-62
2023/07/08 01:17:23;;;;;;;7.60;3.88;;;;;;;;;;4948763;28;20043;-61
2023/07/08 01:19:50;;;;;;;9.18;4.10;;;;;;;;;;4954077;28;20036;-62
2023/07/08 01:22:19;;;;;;;7.22;4.05;;;;;;;;;;4960807;28;20047;-61
2023/07/08 01:24:48;;;;;;;7.15;3.95;;;;;;;;;;4943191;28;20069;-62
2023/07/08 01:27:15;;;;;;;9.02;4.22;;;;;;;;;;4950416;28;20083;-61
2023/07/08 01:29:42;;;;;;;9.88;4.53;;;;;;;;;;4945493;28;20122;-62
2023/07/08 01:32:17;;;;;;;7.00;3.42;;;;;;;;;;4956297;28;20102;-64
2023/07/08 01:34:59;;;;;;;8.00;4.22;;;;;;;;;;4938941;28;20054;-62
2023/07/08 01:37:47;;;;;;;7.82;4.03;;;;;;;;;;4947243;28;20058;-62
2023/07/08 01:40:25;;;;;;;8.10;3.97;;;;;;;;;;4939538;28;20055;-62
2023/07/08 01:42:51;;;;;;;8.52;4.35;;;;;;;;;;4951395;28;20114;-62
2023/07/08 01:45:21;;;;;;;6.95;3.90;;;;;;;;;;4946437;28;20509;-63
2023/07/08 01:47:50;;;;;;;10.35;4.40;;;;;;;;;;4941925;28;20118;-63
2023/07/08 01:50:17;;;;;;;8.10;4.13;;;;;;;;;;4955146;28;20488;-63
2023/07/08 01:52:45;;;;;;;8.15;4.75;;;;;;;;;;4940630;28;20122;-63
2023/07/08 01:55:13;;;;;;;6.80;3.88;;;;;;;;;;4951681;28;20060;-63
2023/07/08 01:57:39;;;;;;;10.52;4.25;;;;;;;;;;4956359;28;20065;-63
2023/07/08 02:00:08;;;;;;;6.68;3.97;;;;;;;;;;4940798;28;20039;-63
2023/07/08 02:02:34;;;;;;;7.05;4.03;;;;;;;;;;4943796;28;20066;-63
2023/07/08 02:05:00;;;;;;;8.93;4.10;;;;;;;;;;4937942;28;20040;-63
2023/07/08 02:07:26;;;;;;;7.75;4.38;;;;;;;;;;4949306;28;20054;-63
2023/07/08 02:09:52;;;;;;;10.15;4.57;;;;;;;;;;4944384;28;20049;-63
2023/07/08 02:12:18;;;;;;;8.77;4.50;;;;;;;;;;4949163;28;20429;-63
2023/07/08 02:14:46;;;;;;;12.13;4.60;;;;;;;;;;4950705;28;20031;-63
2023/07/08 02:17:16;;;;;;;10.25;4.22;;;;;;;;;;4950547;28;20093;-63
2023/07/08 02:19:43;;;;;;;8.15;4.45;;;;;;;;;;4949186;28;20055;-63
2023/07/08 02:22:09;;;;;;;7.95;4.07;;;;;;;;;;4955821;28;20477;-63
2023/07/08 02:24:37;;;;;;;7.53;3.95;;;;;;;;;;4942155;28;20057;-63
2023/07/08 02:27:04;;;;;;;9.40;4.70;;;;;;;;;;4959783;28;20043;-63
2023/07/08 02:29:33;;;;;;;10.23;4.15;;;;;;;;;;4950120;28;20142;-63
2023/07/08 02:31:59;;;;;;;6.85;4.05;;;;;;;;;;4961235;28;20041;-63
2023/07/08 02:34:25;;;;;;;10.10;4.60;;;;;;;;;;4950699;28;20044;-63
2023/07/08 02:36:54;;;;;;;8.25;4.13;;;;;;;;;;4945081;28;20093;-63
2023/07/08 02:39:20;;;;;;;8.23;4.15;;;;;;;;;;4950411;28;20066;-63
2023/07/08 02:41:47;;;;;;;12.00;4.85;;;;;;;;;;4962491;28;20050;-63
2023/07/08 02:44:13;;;;;;;10.80;4.30;;;;;;;;;;4949056;28;20043;-63
2023/07/08 02:46:40;;;;;;;8.02;3.92;;;;;;;;;;4944013;28;20068;-63
2023/07/08 02:49:08;;;;;;;10.27;5.45;;;;;;;;;;4945937;28;20093;-63
2023/07/08 02:51:34;;;;;;;9.73;4.65;;;;;;;;;;4955932;28;20406;-63
2023/07/08 02:54:00;;;;;;;9.68;5.18;;;;;;;;;;4952811;28;20113;-63
2023/07/08 02:56:26;;;;;;;10.07;4.53;;;;;;;;;;4950217;28;20039;-63
2023/07/08 02:58:55;;;;;;;9.35;4.65;;;;;;;;;;4944557;28;20139;-63
2023/07/08 03:01:23;;;;;;;7.75;3.92;;;;;;;;;;4958017;28;20036;-63
2023/07/08 03:03:50;;;;;;;9.15;4.47;;;;;;;;;;4940303;28;20504;-63
2023/07/08 03:06:16;;;;;;;9.00;4.35;;;;;;;;;;4952681;28;20527;-63
2023/07/08 03:08:42;;;;;;;10.88;4.80;;;;;;;;;;4950023;28;20045;-63
2023/07/08 03:11:08;;;;;;;10.13;5.13;;;;;;;;;;4967748;28;20035;-63
2023/07/08 03:13:34;;;;;;;9.90;4.35;;;;;;;;;;4943354;28;20612;-63
2023/07/08 03:16:01;;;;;;;8.75;4.45;;;;;;;;;;4945716;28;20129;-63
2023/07/08 03:18:28;;;;;;;7.00;4.30;;;;;;;;;;4939954;28;20379;-63
2023/07/08 03:20:57;;;;;;;9.13;4.50;;;;;;;;;;4949680;28;20045;-63
2023/07/08 03:23:24;;;;;;;7.50;4.30;;;;;;;;;;4948336;28;20035;-63
2023/07/08 03:25:52;;;;;;;8.35;4.75;;;;;;;;;;4945035;28;20042;-63
2023/07/08 03:28:18;;;;;;;10.70;6.07;;;;;;;;;;4954117;28;20051;-63
2023/07/08 03:30:45;;;;;;;8.05;4.72;;;;;;;;;;4958997;28;20528;-62
2023/07/08 03:33:12;;;;;;;9.82;4.78;;;;;;;;;;4953822;28;20047;-62
2023/07/08 03:35:38;;;;;;;7.82;4.60;;;;;;;;;;4979011;28;20481;-63
2023/07/08 03:38:04;;;;;;;8.48;4.20;;;;;;;;;;4944075;28;20054;-63
2023/07/08 03:40:31;;;;;;;9.25;4.38;;;;;;;;;;4946537;28;20039;-63
2023/07/08 03:42:57;;;;;;;9.05;4.78;;;;;;;;;;4953582;28;20506;-63
2023/07/08 03:45:23;;;;;;;9.48;4.75;;;;;;;;;;4948510;28;20055;-62
2023/07/08 03:47:51;;;;;;;8.57;4.72;;;;;;;;;;4943444;28;20054;-62
2023/07/08 03:50:21;;;;;;;7.55;4.75;;;;;;;;;;4950766;28;20039;-62
2023/07/08 03:52:47;;;;;;;8.32;5.43;;;;;;;;;;4942092;28;20176;-62
2023/07/08 03:55:13;;;;;;;10.88;5.40;;;;;;;;;;4961998;28;20030;-62
2023/07/08 03:57:40;;;;;;;10.60;5.30;;;;;;;;;;4951999;28;20508;-62
2023/07/08 04:00:09;;;;;;;7.80;4.78;;;;;;;;;;4950788;28;20032;-62
2023/07/08 04:02:38;;;;;;;8.45;4.80;;;;;;;;;;4944544;28;20644;-62
2023/07/08 04:05:04;;;;;;;7.53;4.97;;;;;;;;;;4944933;28;20043;-62
2023/07/08 04:07:30;;;;;;;9.32;5.65;;;;;;;;;;4944211;28;20126;-63
2023/07/08 04:09:56;;;;;;;7.85;4.82;;;;;;;;;;4972126;28;20461;-63
2023/07/08 04:12:22;;;;;;;10.23;5.40;;;;;;;;;;4943580;28;20040;-63
2023/07/08 04:14:48;;;;;;;8.38;4.95;;;;;;;;;;4943722;28;20073;-63
2023/07/08 04:17:15;;;;;;;10.13;5.00;;;;;;;;;;4950430;28;20046;-63
2023/07/08 04:19:43;;;;;;;10.75;5.38;;;;;;;;;;4947015;28;20082;-63
2023/07/08 04:22:10;;;;;;;10.00;5.00;;;;;;;;;;4948023;28;20046;-63
2023/07/08 04:24:36;;;;;;;10.63;5.53;;;;;;;;;;4949670;28;20495;-62
2023/07/08 04:27:02;;;;;;;6.93;4.70;;;;;;;;;;4945749;28;20122;-62
2023/07/08 04:29:28;;;;;;;10.02;5.20;;;;;;;;;;4951804;28;20047;-63
2023/07/08 04:31:54;;;;;;;7.82;4.97;;;;;;;;;;4951071;28;20031;-63
2023/07/08 04:34:21;;;;;;;9.77;5.15;;;;;;;;;;4952075;28;20161;-62
2023/07/08 04:36:47;;;;;;;10.82;5.43;;;;;;;;;;4951016;28;20468;-63
2023/07/08 04:39:13;;;;;;;11.15;5.65;;;;;;;;;;4948897;28;20038;-63
2023/07/08 04:41:40;;;;;;;9.38;5.38;;;;;;;;;;4948290;28;20093;-62
2023/07/08 04:44:16;;;;;;;10.75;5.15;;;;;;;;;;4945907;28;20059;-63
2023/07/08 04:46:47;;;;;;;10.57;5.93;;;;;;;;;;4947195;28;20548;-63
2023/07/08 04:49:14;;;;;;;9.65;5.43;;;;;;;;;;4973260;28;20046;-62
2023/07/08 04:51:40;;;;;;;14.38;6.30;;;;;;;;;;4940693;28;20050;-62
2023/07/08 04:54:07;;;;;;;9.65;5.10;;;;;;;;;;4948862;28;20042;-62
2023/07/08 04:56:43;;;;;;;9.75;5.30;;;;;;;;;;4954604;28;20043;-62
2023/07/08 04:59:10;;;;;;;8.85;4.95;;;;;;;;;;4951806;28;20035;-62
2023/07/08 05:01:37;;;;;;;8.70;5.28;;;;;;;;;;4947948;28;20489;-62
2023/07/08 05:04:05;;;;;;;7.63;4.50;;;;;;;;;;4948142;28;20110;-63
2023/07/08 05:06:32;;;;;;;10.68;4.68;;;;;;;;;;4941194;28;20047;-63
2023/07/08 05:09:03;;;;;;;7.97;5.03;;;;;;;;;;4945449;28;20118;-63
2023/07/08 05:11:30;;;;;;;8.88;5.20;;;;;;;;;;4959014;28;20117;-63
2023/07/08 05:13:56;;;;;;;8.32;5.47;;;;;;;;;;4943678;28;20039;-63
2023/07/08 05:16:22;;;;;;;10.82;5.20;;;;;;;;;;4944875;28;20519;-63
2023/07/08 05:18:48;;;;;;;8.50;5.03;;;;;;;;;;4950930;28;20371;-63
2023/07/08 05:21:14;;;;;;;9.30;5.43;;;;;;;;;;4938384;28;20046;-63
2023/07/08 05:23:41;;;;;;;8.27;5.00;;;;;;;;;;4949056;28;20044;-62
2023/07/08 05:26:07;;;;;;;9.45;5.40;;;;;;;;;;4953770;28;20035;-63
2023/07/08 05:28:34;;;;;;;9.73;5.25;;;;;;;;;;4950446;28;20050;-63
2023/07/08 05:31:00;;;;;;;9.50;4.68;;;;;;;;;;4950112;28;20050;-63
2023/07/08 05:33:27;;;;;;;8.32;4.63;;;;;;;;;;4946486;28;20048;-63
2023/07/08 05:35:53;;;;;;;8.60;5.40;;;;;;;;;;4942781;28;20409;-63
2023/07/08 05:38:20;;;;;;;10.65;5.22;;;;;;;;;;4956888;28;20062;-63
2023/07/08 05:40:49;;;;;;;8.93;5.22;;;;;;;;;;4959422;28;20170;-63
2023/07/08 05:43:15;;;;;;;8.93;4.78;;;;;;;;;;4965189;28;20129;-63
2023/07/08 05:45:41;;;;;;;12.40;5.28;;;;;;;;;;4945371;28;20122;-63
2023/07/08 05:48:07;;;;;;;8.82;5.05;;;;;;;;;;4954225;28;20175;-63
2023/07/08 05:50:33;;;;;;;7.00;4.65;;;;;;;;;;4952209;28;20039;-63
2023/07/08 05:52:59;;;;;;;8.93;4.53;;;;;;;;;;4949222;28;20517;-63
2023/07/08 05:55:25;;;;;;;10.40;4.40;;;;;;;;;;4949394;28;20513;-63
2023/07/08 05:57:51;;;;;;;8.63;5.03;;;;;;;;;;4957700;28;20040;-63
2023/07/08 06:00:19;;;;;;;7.43;4.25;;;;;;;;;;4964338;28;20038;-63
2023/07/08 06:02:45;;;;;;;7.90;4.50;;;;;;;;;;4952424;28;20049;-63
2023/07/08 06:05:13;;;;;;;7.60;4.47;;;;;;;;;;4954421;28;20075;-63
2023/07/08 06:07:39;;;;;;;7.68;4.43;;;;;;;;;;4951836;28;20493;-63
2023/07/08 06:10:08;;;;;;;6.78;3.63;;;;;;;;;;4956624;28;20081;-63
2023/07/08 06:12:34;;;;;;;9.50;5.13;;;;;;;;;;4957808;28;20540;-63
2023/07/08 06:15:02;;;;;;;8.40;4.63;;;;;;;;;;4954868;28;20047;-63
2023/07/08 06:17:28;;;;;;;7.72;4.35;;;;;;;;;;4949816;28;20095;-62
2023/07/08 06:19:56;;;;;;;7.00;4.30;;;;;;;;;;4952667;28;20043;-62
2023/07/08 06:22:22;;;;;;;9.18;4.05;;;;;;;;;;4959399;28;20566;-62
2023/07/08 06:24:48;;;;;;;7.63;3.80;;;;;;;;;;4945762;28;20094;-64
2023/07/08 06:27:16;;;;;;;9.82;4.13;;;;;;;;;;4946022;28;20382;-62
2023/07/08 06:29:46;;;;;;;7.80;3.50;;;;;;;;;;4953760;28;20044;-62
2023/07/08 06:32:12;;;;;;;7.43;4.03;;;;;;;;;;4952486;28;20043;-62
2023/07/08 06:34:38;;;;;;;6.70;3.55;;;;;;;;;;4958492;28;20413;-63
2023/07/08 06:37:04;;;;;;;8.63;3.85;;;;;;;;;;4959195;28;20382;-62
2023/07/08 06:39:30;;;;;;;7.03;3.60;;;;;;;;;;4966177;28;20358;-62
2023/07/08 06:41:56;;;;;;;6.18;3.33;;;;;;;;;;4960139;28;20441;-62
2023/07/08 06:44:26;;;;;;;6.57;3.47;;;;;;;;;;4959371;28;20079;-62
2023/07/08 06:46:54;;;;;;;6.90;3.35;;;;;;;;;;4963283;28;20061;-62
2023/07/08 06:49:22;;;;;;;6.93;3.67;;;;;;;;;;4954385;28;20047;-62
2023/07/08 06:51:48;;;;;;;6.10;3.55;;;;;;;;;;4961134;28;20413;-62
2023/07/08 06:54:14;;;;;;;6.80;3.75;;;;;;;;;;4962979;28;20051;-62
2023/07/08 06:56:41;;;;;;;6.28;3.33;;;;;;;;;;4954437;28;20039;-62
2023/07/08 06:59:07;;;;;;;7.03;3.55;;;;;;;;;;4964127;28;20039;-63
2023/07/08 07:01:36;;;;;;;7.43;3.13;;;;;;;;;;4953014;28;20047;-62
2023/07/08 07:04:03;;;;;;;7.50;3.00;;;;;;;;;;4953689;28;20047;-62
2023/07/08 07:06:31;;;;;;;6.03;3.25;;;;;;;;;;4953187;28;20066;-62
2023/07/08 07:08:57;;;;;;;8.52;3.55;;;;;;;;;;4952527;28;20051;-62
2023/07/08 07:11:23;;;;;;;9.57;3.90;;;;;;;;;;4951843;28;20050;-63
2023/07/08 07:13:49;;;;;;;8.13;3.70;;;;;;;;;;4949977;28;20045;-62
2023/07/08 07:16:16;;;;;;;7.97;3.38;;;;;;;;;;4976155;28;20035;-62
2023/07/08 07:18:42;;;;;;;6.20;2.72;;;;;;;;;;4959407;28;20039;-63
2023/07/08 07:21:10;;;;;;;9.18;3.67;;;;;;;;;;4961068;28;20035;-62
2023/07/08 07:23:40;;;;;;;10.40;4.13;;;;;;;;;;4970083;28;20115;-62
2023/07/08 07:26:09;;;;;;;6.57;3.42;;;;;;;;;;4961946;28;20500;-63
2023/07/08 07:28:35;;;;;;;6.47;3.40;;;;;;;;;;4944868;28;20118;-63
2023/07/08 07:31:01;;;;;;;7.13;3.30;;;;;;;;;;4945328;28;20079;-63
2023/07/08 07:33:29;;;;;;;6.13;3.08;;;;;;;;;;4953805;28;20047;-63
2023/07/08 07:35:55;;;;;;;6.13;3.45;;;;;;;;;;4946445;28;20078;-63
2023/07/08 07:38:37;;;;;;;8.07;4.07;;;;;;;;;;4947824;28;20043;-62
2023/07/08 07:41:10;;;;;;;6.15;2.88;;;;;;;;;;4946427;28;20036;-63
2023/07/08 07:43:36;;;;;;;5.57;3.03;;;;;;;;;;4946545;28;20043;-62
2023/07/08 07:46:07;;;;;;;11.35;3.70;;;;;;;;;;4975857;28;20039;-63
2023/07/08 07:48:37;;;;;;;8.68;3.10;;;;;;;;;;4954073;28;20078;-63
2023/07/08 07:51:10;;;;;;;11.45;3.47;;;;;;;;;;4947008;28;20481;-63
2023/07/08 07:53:42;;;;;;;7.47;3.78;;;;;;;;;;4947876;28;20471;-63
2023/07/08 07:56:10;;;;;;;7.57;2.90;;;;;;;;;;4947393;28;20050;-63
2023/07/08 07:58:43;;;;;;;7.35;3.28;;;;;;;;;;4960227;28;20469;-62
2023/07/08 08:01:13;;;;;;;7.78;3.50;;;;;;;;;;4943586;28;20122;-62
2023/07/08 08:03:42;;;;;;;6.38;3.35;;;;;;;;;;4937097;28;20040;-62
2023/07/08 08:06:11;;;;;;;7.18;3.50;;;;;;;;;;4950729;28;20042;-62
2023/07/08 08:08:42;;;;;;;7.53;3.63;;;;;;;;;;4941269;28;20050;-62
2023/07/08 08:11:12;;;;;;;6.75;3.05;;;;;;;;;;4955405;28;20513;-62
2023/07/08 08:13:39;;;;;;;6.05;3.25;;;;;;;;;;4940738;28;20729;-62
2023/07/08 08:16:10;;;;;;;8.10;3.47;;;;;;;;;;4957672;28;20046;-62
2023/07/08 08:18:36;;;;;;;7.30;3.08;;;;;;;;;;4942621;28;20059;-62
2023/07/08 08:21:06;;;;;;;6.80;3.40;;;;;;;;;;4943329;28;20106;-62
2023/07/08 08:23:39;;;;;;;8.48;3.63;;;;;;;;;;4943972;28;20039;-62
2023/07/08 08:26:11;;;;;;;8.52;3.63;;;;;;;;;;4977441;28;20119;-62
2023/07/08 08:28:40;;;;;;;6.68;2.97;;;;;;;;;;4956757;28;20059;-62
2023/07/08 08:31:11;;;;;;;7.70;3.17;;;;;;;;;;4943349;28;20102;-63
2023/07/08 08:33:38;;;;;;;8.52;3.38;;;;;;;;;;4945445;28;20043;-62
2023/07/08 08:36:11;;;;;;;7.45;3.38;;;;;;;;;;4946938;28;20046;-62
2023/07/08 08:38:37;;;;;;;5.93;3.22;;;;;;;;;;4970724;28;20043;-63
2023/07/08 08:41:05;;;;;;;6.63;3.22;;;;;;;;;;4947346;28;20039;-63
2023/07/08 08:43:37;;;;;;;8.85;3.42;;;;;;;;;;4950686;28;20043;-63
2023/07/08 08:46:26;;;;;;;6.43;3.25;;;;;;;;;;4945447;28;20046;-63
2023/07/08 08:48:59;;;;;;;5.95;3.45;;;;;;;;;;4952670;28;20126;-63
2023/07/08 08:51:28;;;;;;;9.57;3.30;;;;;;;;;;4951129;28;20047;-63
2023/07/08 08:53:59;;;;;;;6.50;3.75;;;;;;;;;;4953008;28;20038;-63
2023/07/08 08:56:29;;;;;;;8.90;3.83;;;;;;;;;;4955613;28;20493;-63
2023/07/08 08:59:09;;;;;;;7.60;3.78;;;;;;;;;;4946675;28;20175;-63
2023/07/08 09:01:37;;;;;;;5.70;3.30;;;;;;;;;;4947242;28;20126;-63
2023/07/08 09:04:11;;;;;;;7.32;3.40;;;;;;;;;;4941451;28;20032;-63
2023/07/08 09:06:42;;;;;;;;;;;;;;;;;;4946080;28;20043;-63
2023/07/08 09:09:20;;;;;;;5.80;2.92;;;;;;;;;;4953656;28;20081;-63
2023/07/08 09:11:53;;;;;;;5.50;2.90;;;;;;;;;;4945810;28;20126;-63
2023/07/08 09:14:28;;;;;;;6.55;3.20;;;;;;;;;;4938124;28;20179;-63
2023/07/08 09:17:16;;;;;;;8.55;3.17;;;;;;;;;;4942330;28;20051;-63
2023/07/08 09:19:45;;;;;;;6.50;3.28;;;;;;;;;;4949573;28;20043;-62
2023/07/08 09:22:24;;;;;;;9.70;3.33;;;;;;;;;;4943070;28;20102;-63
2023/07/08 09:25:06;;;;;;;6.07;3.33;;;;;;;;;;4939762;28;20046;-63
2023/07/08 09:27:32;;;;;;;8.07;3.72;;;23.50;95.40;;;;;;4950186;28;20143;-63
2023/07/08 09:29:57;;;;;;;8.57;3.40;;;23.60;93.20;;;;;;4945876;28;20633;-62
2023/07/08 09:32:25;;;;;;;8.48;3.38;;;23.50;95.80;;;;;;4947731;28;20039;-63
2023/07/08 09:34:54;;;;;;;5.72;3.05;;;;;;;;;;4941725;28;20134;-63
2023/07/08 09:37:26;;;;;;;6.18;3.35;;;23.80;71.80;;;;;;4944953;28;20032;-63
2023/07/08 09:39:56;;;;;;;6.82;3.40;;;23.80;72.90;;;;;;4943605;28;20039;-63
2023/07/08 09:42:26;;;;;;;6.78;3.20;;;23.80;52.80;;;;;;4941588;28;20035;-63
2023/07/08 09:44:58;;;;;;;7.60;3.00;;;24.00;52.20;;;;;;4941728;28;20509;-63
2023/07/08 09:47:30;;;;;;;7.43;2.83;;;24.10;61.50;;;;;;4948775;28;20043;-63
2023/07/08 09:49:57;;;;;;;5.72;3.00;;;24.20;44.10;;;;;;4937784;28;20047;-63
2023/07/08 09:52:23;;;;;;;5.60;3.17;;;24.50;25.40;;;;;;4946077;28;20075;-63
2023/07/08 09:54:49;;;;;;;6.68;3.53;;;24.70;9.50;;;;;;4944607;28;20744;-63
2023/07/08 09:57:26;;;;;;;7.53;3.30;;;24.40;3.10;;;;;;4941587;28;20134;-63
2023/07/08 09:59:56;;;;;;;7.03;3.47;;;;;;;;;;4949710;28;20094;-63
2023/07/08 10:02:28;;;;;;;5.80;3.42;;;24.80;1.00;;;;;;4942100;28;20051;-63
2023/07/08 10:04:56;;;;;;;6.60;2.90;;;;;;;;;;4949981;28;20093;-63
2023/07/08 10:07:21;;;;;;;7.93;3.15;;;25.10;1.00;;;;;;4938746;28;20580;-63
2023/07/08 10:09:54;;;;;;;7.10;3.17;;;25.10;1.00;;;;;;4953714;28;20043;-63
2023/07/08 10:12:21;;;;;;;6.35;3.45;;;25.10;1.00;;;;;;4966071;28;20101;-63
2023/07/08 10:14:52;;;;;;;6.47;3.28;;;25.10;1.00;;;;;;4944041;28;20171;-63
2023/07/08 10:17:19;;;;;;;7.47;3.28;;;25.20;1.00;;;;;;4952514;28;20039;-63
2023/07/08 10:19:45;;;;;;;5.95;3.40;;;25.40;1.00;;;;;;4952139;28;20049;-63
2023/07/08 10:22:54;;;;;;;9.23;3.42;;;25.70;1.00;;;;;;4954033;28;20561;-63
2023/07/08 10:25:30;;;;;;;6.20;3.13;;;25.90;1.00;;;;;;4943710;28;20057;-63
2023/07/08 10:28:01;;;;;;;6.05;3.17;;;26.00;1.00;;;;;;4958939;28;20051;-63
2023/07/08 10:30:39;;;;;;;6.78;3.92;;;25.70;1.00;;;;;;4946945;28;20047;-63
2023/07/08 10:33:24;;;;;;;6.10;3.30;;;26.10;1.00;;;;;;4945240;28;20566;-63
2023/07/08 10:36:17;;;;;;;6.10;3.55;;;25.90;1.00;;;;;;4941748;28;20470;-63
2023/07/08 10:39:12;;;;;;;8.05;3.67;;;26.20;1.00;;;;;;4950932;28;20046;-63
2023/07/08 10:41:50;;;;;;;6.43;3.30;;;26.30;1.00;;;;;;4960668;28;20128;-63
2023/07/08 10:44:27;;;;;;;7.18;4.03;;;;;;;;;;4946961;28;20040;-63
2023/07/08 10:47:15;;;;;;;8.45;4.00;;;26.20;1.00;;;;;;4953892;28;20058;-63
2023/07/08 10:49:55;;;;;;;6.55;3.13;;;26.50;1.00;;;;;;4967852;28;20046;-63
2023/07/08 10:52:35;;;;;;;7.70;3.42;;;26.50;1.00;;;;;;4946046;28;21813;-63
2023/07/08 10:55:17;;;;;;;8.10;3.22;;;26.80;1.00;;;;;;4931204;29;20039;-63
2023/07/08 10:58:01;;;;;;;6.93;2.90;;;26.70;1.00;;;;;;4958388;28;20035;-63
2023/07/08 11:01:06;;;;;;;8.23;3.42;;;26.80;1.00;;;;;;4952861;28;20066;-63
2023/07/08 11:03:51;;;;;;;8.63;3.60;;;27.00;1.00;;;;;;4949057;28;20421;-63
2023/07/08 11:06:23;;;;;;;6.53;3.50;;;27.00;1.00;;;;;;4948715;28;20042;-63
2023/07/08 11:09:02;;;;;;;6.22;3.58;;;27.40;1.00;;;;;;4941685;28;20038;-63
2023/07/08 11:11:56;;;;;;;7.93;3.75;;;27.40;1.00;;;;;;4945154;28;20043;-63
2023/07/08 11:14:45;;;;;;;7.30;3.67;;;27.60;1.00;;;;;;4949135;28;20039;-63
2023/07/08 11:17:52;;;;;;;6.03;3.50;;;27.50;1.00;;;;;;4945766;28;20051;-63
2023/07/08 11:20:42;;;;;;;6.72;3.63;;;27.90;1.00;;;;;;4943381;28;20051;-63
2023/07/08 11:23:22;;;;;;;6.88;3.35;;;27.60;99.90;;;;;;4947811;28;20084;-63
2023/07/08 11:25:50;;;;;;;5.97;3.40;;;27.90;1.00;;;;;;4950544;28;20402;-63
2023/07/08 11:28:18;;;;;;;6.38;3.38;;;28.00;1.00;;;;;;4942096;28;20070;-63
2023/07/08 11:30:47;;;;;;;7.57;3.42;;;28.10;1.00;;;;;;4937993;28;20043;-63
2023/07/08 11:33:14;;;;;;;8.85;4.35;;;28.10;1.00;;;;;;4945199;28;20039;-63
2023/07/08 11:36:06;;;;;;;7.57;3.38;;;28.30;99.90;;;;;;4946405;28;20508;-63
2023/07/08 11:38:34;;;;;;;5.57;3.33;;;28.50;99.90;;;;;;4948825;28;20418;-64
2023/07/08 11:41:15;;;;;;;9.23;3.67;;;28.60;99.90;;;;;;4962797;28;20048;-63
2023/07/08 11:44:03;;;;;;;7.30;3.40;;;28.50;99.90;;;;;;4945268;28;20485;-64
2023/07/08 11:46:34;;;;;;;7.15;3.50;;;28.80;99.90;;;;;;4954733;28;20093;-64
2023/07/08 11:49:13;;;;;;;18.17;16.40;;;28.90;99.90;;;;;;4942825;28;20044;-63
2023/07/08 11:51:43;;;;;;;12.70;11.38;;;28.80;99.90;;;;;;4949761;28;20043;-63
2023/07/08 11:54:30;;;;;;;8.93;4.40;;;29.00;99.90;;;;;;4946396;28;20039;-62
2023/07/08 11:57:09;;;;;;;7.85;3.58;;;29.00;99.90;;;;;;4940437;28;20047;-61
2023/07/08 11:59:40;;;;;;;7.75;3.65;;;29.50;99.90;;;;;;4959576;28;20484;-61
2023/07/08 12:02:18;;;;;;;6.70;3.38;;;29.30;99.90;;;;;;4929773;29;20036;-61
2023/07/08 12:05:01;;;;;;;6.70;3.50;;;29.40;99.90;;;;;;4967485;28;20118;-62
2023/07/08 12:07:40;;;;;;;5.85;3.38;;;29.90;99.90;;;;;;4944108;28;20351;-62
2023/07/08 12:10:16;;;;;;;7.70;3.53;;;30.10;99.90;;;;;;4951213;28;20062;-62
2023/07/08 12:12:44;;;;;;;7.00;3.53;;;30.40;99.90;;;;;;4948129;28;20038;-62
2023/07/08 12:15:12;;;;;;;7.07;3.72;;;30.40;99.90;;;;;;4929317;28;20120;-62
2023/07/08 12:17:39;;;;;;;8.15;3.50;;;30.50;99.90;;;;;;4943098;28;20038;-62
2023/07/08 12:20:15;;;;;;;10.23;3.72;;;30.50;99.90;;;;;;4945811;28;20036;-62
2023/07/08 12:22:41;;;;;;;7.13;3.72;;;30.80;99.90;;;;;;4950415;28;20046;-61
2023/07/08 12:25:18;;;;;;;6.85;3.60;;;30.70;99.90;;;;;;4951995;28;20369;-62
2023/07/08 12:27:45;;;;;;;6.32;3.75;;;30.90;99.90;;;;;;4975075;28;20035;-62
2023/07/08 12:30:13;;;;;;;6.50;3.85;;;;;;;;;;4940473;28;20152;-62
2023/07/08 12:32:40;;;;;;;6.35;3.35;;;31.50;99.90;;;;;;4935912;28;20066;-62
2023/07/08 12:35:36;;;;;;;7.63;3.92;;;31.60;99.90;;;;;;4952220;28;20676;-62
2023/07/08 12:38:18;;;;;;;6.30;3.63;;;31.70;99.90;;;;;;4950313;28;20051;-62
2023/07/08 12:40:44;;;;;;;6.45;3.20;;;31.70;99.90;;;;;;4951361;28;20042;-62
2023/07/08 12:43:10;;;;;;;9.02;3.72;;;32.80;99.90;;;;;;4982233;28;20114;-62
2023/07/08 12:45:36;;;;;;;6.90;3.20;;;34.50;99.90;;;;;;4956319;28;20493;-62
2023/07/08 12:48:02;;;;;;;6.72;3.10;;;36.60;99.90;;;;;;4951379;28;20037;-62
2023/07/08 12:50:28;;;;;;;7.07;3.63;;;38.40;1.00;;;;;;4955256;28;20074;-62
2023/07/08 12:52:54;;;;;;;8.52;3.40;;;39.30;1.00;;;;;;4951563;28;20160;-62
2023/07/08 12:55:20;;;;;;;7.07;3.58;;;39.80;48.50;;;;;;4950293;28;20085;-63
2023/07/08 12:57:48;;;;;;;8.23;3.92;;;40.00;39.70;;;;;;4951480;28;20062;-63
2023/07/08 13:00:30;;;;;;;6.78;3.45;;;40.20;13.00;;;;;;4950765;28;20477;-63
2023/07/08 13:03:08;;;;;;;6.25;3.63;;;40.00;1.00;;;;;;4954169;28;20040;-63
2023/07/08 13:05:34;;;;;;;6.93;3.47;;;39.70;1.00;;;;;;4958068;28;20071;-63
2023/07/08 13:08:00;;;;;;;9.13;3.83;;;39.00;1.00;;;;;;4952215;28;20058;-63
2023/07/08 13:10:29;;;;;;;6.40;3.30;;;39.50;1.00;;;;;;4939587;28;20047;-63
2023/07/08 13:12:59;;;;;;;7.63;3.45;;;39.30;1.00;;;;;;4952728;28;20193;-62
2023/07/08 13:15:32;;;;;;;6.40;3.60;;;39.60;1.00;;;;;;4956300;28;20035;-62
2023/07/08 13:17:59;;;;;;;7.55;3.53;;;39.70;1.00;;;;;;4954053;28;20358;-62
2023/07/08 13:20:25;;;;;;;6.50;2.90;;;39.80;1.00;;;;;;4950509;28;20051;-62
2023/07/08 13:23:02;;;;;;;7.00;3.45;;;39.70;1.00;;;;;;4957362;28;20110;-62
2023/07/08 13:25:30;;;;;;;9.20;3.50;;;39.90;1.00;;;;;;4951342;28;20071;-63
2023/07/08 13:28:19;;;;;;;7.07;3.30;;;40.20;1.00;;;;;;4966130;28;20035;-63
2023/07/08 13:30:57;;;;;;;7.22;4.43;;;39.90;1.00;;;;;;4947355;28;20393;-63
2023/07/08 13:33:23;;;;;;;6.38;3.60;;;39.90;1.00;;;;;;4963628;28;20050;-63
2023/07/08 13:35:51;;;;;;;8.13;3.30;;;40.00;1.00;;;;;;4939551;28;20091;-63
2023/07/08 13:38:23;;;;;;;7.78;4.40;;;39.70;1.00;;;;;;4954230;28;20043;-63
2023/07/08 13:40:56;;;;;;;5.50;3.55;;;40.10;1.00;;;;;;4972100;28;20054;-62
2023/07/08 13:43:28;;;;;;;8.30;3.72;;;40.00;1.00;;;;;;4956531;28;20493;-62
2023/07/08 13:45:54;;;;;;;6.97;3.43;;;39.90;1.00;;;;;;4957366;28;20094;-62
2023/07/08 13:48:35;;;;;;;7.30;3.70;;;39.90;1.00;;;;;;4958467;28;20688;-62
2023/07/08 13:51:14;;;;;;;6.25;3.53;;;39.90;1.00;;;;;;4957381;28;20039;-62
2023/07/08 13:53:40;;;;;;;5.80;3.70;;;39.90;1.00;;;;;;4964616;28;20070;-62
2023/07/08 13:56:21;;;;;;;6.60;3.53;;;40.00;1.00;;;;;;4950245;28;20071;-62
2023/07/08 13:58:51;;;;;;;7.95;3.60;;;40.00;1.00;;;;;;4957157;28;20050;-62
2023/07/08 14:01:22;;;;;;;7.43;3.35;;;40.00;1.00;;;;;;4952480;28;20047;-62
2023/07/08 14:03:48;;;;;;;6.80;3.45;;;39.80;1.00;;;;;;4953865;28;20408;-62
2023/07/08 14:06:16;;;;;;;8.43;3.63;;;40.10;1.00;;;;;;4965294;28;20027;-62
2023/07/08 14:08:43;;;;;;;7.72;3.50;;;40.30;1.00;;;;;;4957545;28;20119;-62
2023/07/08 14:11:09;;;;;;;5.53;3.30;;;40.40;1.00;;;;;;4960275;28;20274;-62
2023/07/08 14:13:34;;;;;;;7.47;3.80;;;40.40;1.00;;;;;;4947022;28;20126;-62
2023/07/08 14:16:03;;;;;;;6.70;3.75;;;40.40;1.00;;;;;;4961615;28;20114;-62
2023/07/08 14:18:29;;;;;;;6.93;3.72;;;40.60;1.00;;;;;;4965194;28;20043;-62
2023/07/08 14:20:54;;;;;;;6.88;3.28;;;40.70;1.00;;;;;;4965195;28;20039;-62
2023/07/08 14:23:20;;;;;;;6.15;3.40;;;40.70;1.00;;;;;;4960978;28;20106;-62